Terminal Aerodrome Forecast
Issued by NWS

Current Version | Previous Version | Text Only | Print | Product List | Glossary On
Versions: 1 2 3 4 5 6 7 8 9 10 11 12 13 14 15 16 17 18
000
FTUS43 KILX 252323
TAFDEC
TAF
KDEC 252323Z 2600/2624 20012KT P6SM SCT035 BKN250
     FM260100 17011KT P6SM SCT040 BKN250
     FM260800 18009KT P6SM BKN025
     FM261100 18009KT 5SM -SHRA BR VCTS BKN025CB
     FM261400 18013G20KT P6SM VCTS SCT025CB BKN030
     FM261800 22015KT P6SM VCTS SCT025CB OVC040=

USA.gov is the U.S. government's official web portal to all federal, state and local government web resources and services.